sensor_id;sensor_type;location;lat;lon;timestamp;P1;durP1;ratioP1;P2;durP2;ratioP2
22894;SDS011;11614;52.494;6.976;2023-02-05T00:01:31;18.27;;;9.77;;
22894;SDS011;11614;52.494;6.976;2023-02-05T00:03:58;15.57;;;8.63;;
22894;SDS011;11614;52.494;6.976;2023-02-05T00:06:24;17.63;;;9.77;;
22894;SDS011;11614;52.494;6.976;2023-02-05T00:08:50;14.97;;;7.53;;
22894;SDS011;11614;52.494;6.976;2023-02-05T00:11:16;14.00;;;7.50;;
22894;SDS011;11614;52.494;6.976;2023-02-05T00:13:43;15.90;;;7.93;;
22894;SDS011;11614;52.494;6.976;2023-02-05T00:16:10;14.50;;;7.83;;
22894;SDS011;11614;52.494;6.976;2023-02-05T00:18:36;14.93;;;7.77;;
22894;SDS011;11614;52.494;6.976;2023-02-05T00:21:03;15.17;;;8.67;;
22894;SDS011;11614;52.494;6.976;2023-02-05T00:23:29;13.93;;;7.77;;
22894;SDS011;11614;52.494;6.976;2023-02-05T00:25:55;15.40;;;8.83;;
22894;SDS011;11614;52.494;6.976;2023-02-05T00:28:21;17.37;;;10.20;;
22894;SDS011;11614;52.494;6.976;2023-02-05T00:30:47;17.53;;;8.70;;
22894;SDS011;11614;52.494;6.976;2023-02-05T00:33:13;12.60;;;7.57;;
22894;SDS011;11614;52.494;6.976;2023-02-05T00:35:40;13.73;;;7.87;;
22894;SDS011;11614;52.494;6.976;2023-02-05T00:38:06;14.40;;;7.33;;
22894;SDS011;11614;52.494;6.976;2023-02-05T00:40:32;13.03;;;7.67;;
22894;SDS011;11614;52.494;6.976;2023-02-05T00:42:58;20.47;;;9.50;;
22894;SDS011;11614;52.494;6.976;2023-02-05T00:45:24;19.23;;;9.10;;
22894;SDS011;11614;52.494;6.976;2023-02-05T00:47:55;17.57;;;6.27;;
22894;SDS011;11614;52.494;6.976;2023-02-05T00:50:21;21.40;;;10.77;;
22894;SDS011;11614;52.494;6.976;2023-02-05T00:52:48;23.53;;;11.00;;
22894;SDS011;11614;52.494;6.976;2023-02-05T00:55:14;15.53;;;7.67;;
22894;SDS011;11614;52.494;6.976;2023-02-05T00:57:40;18.73;;;9.10;;
22894;SDS011;11614;52.494;6.976;2023-02-05T01:00:06;18.80;;;9.67;;
22894;SDS011;11614;52.494;6.976;2023-02-05T01:02:32;18.30;;;8.80;;
22894;SDS011;11614;52.494;6.976;2023-02-05T01:04:58;19.00;;;9.50;;
22894;SDS011;11614;52.494;6.976;2023-02-05T01:07:24;20.90;;;10.07;;
22894;SDS011;11614;52.494;6.976;2023-02-05T01:09:50;23.57;;;10.97;;
22894;SDS011;11614;52.494;6.976;2023-02-05T01:12:16;21.03;;;8.97;;
22894;SDS011;11614;52.494;6.976;2023-02-05T01:14:42;19.27;;;8.70;;
22894;SDS011;11614;52.494;6.976;2023-02-05T01:17:08;18.97;;;8.73;;
22894;SDS011;11614;52.494;6.976;2023-02-05T01:19:35;16.80;;;7.20;;
22894;SDS011;11614;52.494;6.976;2023-02-05T01:22:01;18.23;;;8.70;;
22894;SDS011;11614;52.494;6.976;2023-02-05T01:24:27;17.27;;;8.90;;
22894;SDS011;11614;52.494;6.976;2023-02-05T01:26:53;20.53;;;9.20;;
22894;SDS011;11614;52.494;6.976;2023-02-05T01:29:21;15.97;;;7.10;;
22894;SDS011;11614;52.494;6.976;2023-02-05T01:31:47;13.27;;;6.23;;
22894;SDS011;11614;52.494;6.976;2023-02-05T01:34:14;14.33;;;8.23;;
22894;SDS011;11614;52.494;6.976;2023-02-05T01:36:40;14.90;;;7.63;;
22894;SDS011;11614;52.494;6.976;2023-02-05T01:39:06;19.40;;;8.20;;
22894;SDS011;11614;52.494;6.976;2023-02-05T01:41:32;16.13;;;6.90;;
22894;SDS011;11614;52.494;6.976;2023-02-05T01:44:18;16.77;;;8.47;;
22894;SDS011;11614;52.494;6.976;2023-02-05T01:46:48;18.07;;;7.97;;
22894;SDS011;11614;52.494;6.976;2023-02-05T01:51:50;16.53;;;8.57;;
22894;SDS011;11614;52.494;6.976;2023-02-05T01:54:16;16.80;;;9.20;;
22894;SDS011;11614;52.494;6.976;2023-02-05T01:56:44;15.37;;;8.10;;
22894;SDS011;11614;52.494;6.976;2023-02-05T01:59:13;17.10;;;8.10;;
22894;SDS011;11614;52.494;6.976;2023-02-05T02:01:41;19.70;;;8.80;;
22894;SDS011;11614;52.494;6.976;2023-02-05T02:04:08;12.83;;;6.80;;
22894;SDS011;11614;52.494;6.976;2023-02-05T02:06:35;17.53;;;7.90;;
22894;SDS011;11614;52.494;6.976;2023-02-05T02:09:02;15.20;;;8.33;;
22894;SDS011;11614;52.494;6.976;2023-02-05T02:11:30;16.53;;;8.00;;
22894;SDS011;11614;52.494;6.976;2023-02-05T02:13:58;16.87;;;8.00;;
22894;SDS011;11614;52.494;6.976;2023-02-05T02:16:26;16.60;;;8.07;;
22894;SDS011;11614;52.494;6.976;2023-02-05T02:18:52;21.07;;;8.87;;
22894;SDS011;11614;52.494;6.976;2023-02-05T02:24:01;18.20;;;8.43;;
22894;SDS011;11614;52.494;6.976;2023-02-05T02:29:06;16.57;;;8.67;;
22894;SDS011;11614;52.494;6.976;2023-02-05T02:31:43;19.70;;;9.50;;
22894;SDS011;11614;52.494;6.976;2023-02-05T02:34:15;14.73;;;7.87;;
22894;SDS011;11614;52.494;6.976;2023-02-05T02:36:49;16.80;;;8.80;;
22894;SDS011;11614;52.494;6.976;2023-02-05T02:44:36;17.93;;;7.57;;
22894;SDS011;11614;52.494;6.976;2023-02-05T02:47:03;18.87;;;8.20;;
22894;SDS011;11614;52.494;6.976;2023-02-05T02:49:33;19.83;;;8.27;;
22894;SDS011;11614;52.494;6.976;2023-02-05T02:52:01;18.43;;;8.27;;
22894;SDS011;11614;52.494;6.976;2023-02-05T02:54:28;17.80;;;7.40;;
22894;SDS011;11614;52.494;6.976;2023-02-05T02:56:55;19.23;;;8.67;;
22894;SDS011;11614;52.494;6.976;2023-02-05T02:59:23;12.00;;;6.67;;
22894;SDS011;11614;52.494;6.976;2023-02-05T03:01:54;19.07;;;8.57;;
22894;SDS011;11614;52.494;6.976;2023-02-05T03:04:23;14.77;;;6.80;;
22894;SDS011;11614;52.494;6.976;2023-02-05T03:06:51;14.30;;;7.07;;
22894;SDS011;11614;52.494;6.976;2023-02-05T03:11:47;18.83;;;7.43;;
22894;SDS011;11614;52.494;6.976;2023-02-05T03:14:13;19.27;;;7.87;;
22894;SDS011;11614;52.494;6.976;2023-02-05T03:16:39;22.80;;;8.93;;
22894;SDS011;11614;52.494;6.976;2023-02-05T03:19:05;16.10;;;7.43;;
22894;SDS011;11614;52.494;6.976;2023-02-05T03:22:05;21.13;;;7.93;;
22894;SDS011;11614;52.494;6.976;2023-02-05T03:24:24;11.97;;;5.53;;
22894;SDS011;11614;52.494;6.976;2023-02-05T03:26:50;14.50;;;5.93;;
22894;SDS011;11614;52.494;6.976;2023-02-05T03:29:17;15.90;;;7.50;;
22894;SDS011;11614;52.494;6.976;2023-02-05T03:39:56;16.87;;;6.37;;
22894;SDS011;11614;52.494;6.976;2023-02-05T03:42:30;7.40;;;2.73;;
22894;SDS011;11614;52.494;6.976;2023-02-05T03:45:17;17.43;;;7.50;;
22894;SDS011;11614;52.494;6.976;2023-02-05T03:47:48;17.63;;;6.33;;
22894;SDS011;11614;52.494;6.976;2023-02-05T03:50:28;16.97;;;7.70;;
22894;SDS011;11614;52.494;6.976;2023-02-05T03:52:56;25.37;;;9.40;;
22894;SDS011;11614;52.494;6.976;2023-02-05T03:55:28;20.93;;;8.50;;
22894;SDS011;11614;52.494;6.976;2023-02-05T04:00:21;15.47;;;7.00;;
22894;SDS011;11614;52.494;6.976;2023-02-05T04:02:48;22.50;;;8.30;;
22894;SDS011;11614;52.494;6.976;2023-02-05T04:05:14;25.67;;;8.97;;
22894;SDS011;11614;52.494;6.976;2023-02-05T04:07:40;18.37;;;8.97;;
22894;SDS011;11614;52.494;6.976;2023-02-05T04:10:06;27.23;;;10.10;;
22894;SDS011;11614;52.494;6.976;2023-02-05T04:12:32;33.00;;;12.13;;
22894;SDS011;11614;52.494;6.976;2023-02-05T04:14:58;30.70;;;10.23;;
22894;SDS011;11614;52.494;6.976;2023-02-05T04:17:24;28.63;;;10.13;;
22894;SDS011;11614;52.494;6.976;2023-02-05T04:19:50;27.10;;;9.70;;
22894;SDS011;11614;52.494;6.976;2023-02-05T04:22:16;24.90;;;9.83;;
22894;SDS011;11614;52.494;6.976;2023-02-05T04:24:42;27.40;;;10.70;;
22894;SDS011;11614;52.494;6.976;2023-02-05T04:27:08;28.90;;;10.83;;
22894;SDS011;11614;52.494;6.976;2023-02-05T04:29:34;35.63;;;11.73;;
22894;SDS011;11614;52.494;6.976;2023-02-05T04:32:00;29.43;;;10.90;;
22894;SDS011;11614;52.494;6.976;2023-02-05T04:34:26;31.07;;;10.93;;
22894;SDS011;11614;52.494;6.976;2023-02-05T04:36:52;29.17;;;11.50;;
22894;SDS011;11614;52.494;6.976;2023-02-05T04:39:18;35.47;;;12.07;;
22894;SDS011;11614;52.494;6.976;2023-02-05T04:41:44;34.23;;;12.40;;
22894;SDS011;11614;52.494;6.976;2023-02-05T04:44:10;32.77;;;12.83;;
22894;SDS011;11614;52.494;6.976;2023-02-05T04:46:36;35.50;;;12.77;;
22894;SDS011;11614;52.494;6.976;2023-02-05T04:49:02;40.53;;;14.97;;
22894;SDS011;11614;52.494;6.976;2023-02-05T04:51:28;37.17;;;15.27;;
22894;SDS011;11614;52.494;6.976;2023-02-05T04:53:54;33.93;;;12.03;;
22894;SDS011;11614;52.494;6.976;2023-02-05T04:56:20;37.47;;;13.87;;
22894;SDS011;11614;52.494;6.976;2023-02-05T04:58:46;33.07;;;12.83;;
22894;SDS011;11614;52.494;6.976;2023-02-05T05:01:13;43.00;;;14.37;;
22894;SDS011;11614;52.494;6.976;2023-02-05T05:03:39;41.67;;;15.43;;
22894;SDS011;11614;52.494;6.976;2023-02-05T05:06:06;39.37;;;15.77;;
22894;SDS011;11614;52.494;6.976;2023-02-05T05:08:32;48.97;;;16.10;;
22894;SDS011;11614;52.494;6.976;2023-02-05T05:10:58;45.23;;;15.83;;
22894;SDS011;11614;52.494;6.976;2023-02-05T05:13:24;41.60;;;16.03;;
22894;SDS011;11614;52.494;6.976;2023-02-05T05:15:54;40.77;;;15.33;;
22894;SDS011;11614;52.494;6.976;2023-02-05T05:18:20;44.27;;;15.23;;
22894;SDS011;11614;52.494;6.976;2023-02-05T05:20:46;40.10;;;14.77;;
22894;SDS011;11614;52.494;6.976;2023-02-05T05:23:12;35.40;;;14.37;;
22894;SDS011;11614;52.494;6.976;2023-02-05T05:25:42;36.33;;;15.00;;
22894;SDS011;11614;52.494;6.976;2023-02-05T05:28:08;39.93;;;15.10;;
22894;SDS011;11614;52.494;6.976;2023-02-05T05:30:34;31.80;;;13.87;;
22894;SDS011;11614;52.494;6.976;2023-02-05T05:33:00;34.67;;;13.87;;
22894;SDS011;11614;52.494;6.976;2023-02-05T05:35:26;39.30;;;15.47;;
22894;SDS011;11614;52.494;6.976;2023-02-05T05:37:52;41.57;;;14.37;;
22894;SDS011;11614;52.494;6.976;2023-02-05T05:40:20;51.80;;;17.97;;
22894;SDS011;11614;52.494;6.976;2023-02-05T05:43:05;45.37;;;17.00;;
22894;SDS011;11614;52.494;6.976;2023-02-05T05:45:51;43.83;;;15.83;;
22894;SDS011;11614;52.494;6.976;2023-02-05T05:48:17;39.10;;;16.17;;
22894;SDS011;11614;52.494;6.976;2023-02-05T05:50:43;38.57;;;15.57;;
22894;SDS011;11614;52.494;6.976;2023-02-05T05:53:09;38.03;;;14.13;;
22894;SDS011;11614;52.494;6.976;2023-02-05T05:55:35;42.77;;;17.23;;
22894;SDS011;11614;52.494;6.976;2023-02-05T05:58:01;32.10;;;13.67;;
22894;SDS011;11614;52.494;6.976;2023-02-05T06:00:27;26.87;;;10.63;;
22894;SDS011;11614;52.494;6.976;2023-02-05T06:02:53;21.97;;;9.07;;
22894;SDS011;11614;52.494;6.976;2023-02-05T06:05:19;48.67;;;18.40;;
22894;SDS011;11614;52.494;6.976;2023-02-05T06:07:45;50.90;;;18.43;;
22894;SDS011;11614;52.494;6.976;2023-02-05T06:10:11;46.17;;;19.23;;
22894;SDS011;11614;52.494;6.976;2023-02-05T06:12:37;26.87;;;10.87;;
22894;SDS011;11614;52.494;6.976;2023-02-05T06:15:03;46.43;;;16.87;;
22894;SDS011;11614;52.494;6.976;2023-02-05T06:17:29;45.57;;;18.07;;
22894;SDS011;11614;52.494;6.976;2023-02-05T06:19:55;35.43;;;15.10;;
22894;SDS011;11614;52.494;6.976;2023-02-05T06:22:21;44.37;;;20.23;;
22894;SDS011;11614;52.494;6.976;2023-02-05T06:24:47;43.27;;;18.83;;
22894;SDS011;11614;52.494;6.976;2023-02-05T06:27:13;40.27;;;16.77;;
22894;SDS011;11614;52.494;6.976;2023-02-05T06:29:39;43.50;;;18.43;;
22894;SDS011;11614;52.494;6.976;2023-02-05T06:32:05;40.83;;;17.77;;
22894;SDS011;11614;52.494;6.976;2023-02-05T06:34:31;22.40;;;9.40;;
22894;SDS011;11614;52.494;6.976;2023-02-05T06:36:57;42.70;;;19.23;;
22894;SDS011;11614;52.494;6.976;2023-02-05T06:39:23;33.43;;;16.00;;
22894;SDS011;11614;52.494;6.976;2023-02-05T06:41:50;38.70;;;18.17;;
22894;SDS011;11614;52.494;6.976;2023-02-05T06:44:16;42.30;;;19.20;;
22894;SDS011;11614;52.494;6.976;2023-02-05T06:46:42;31.20;;;15.93;;
22894;SDS011;11614;52.494;6.976;2023-02-05T06:49:08;31.20;;;13.57;;
22894;SDS011;11614;52.494;6.976;2023-02-05T06:51:34;29.10;;;12.77;;
22894;SDS011;11614;52.494;6.976;2023-02-05T06:54:00;20.07;;;8.60;;
22894;SDS011;11614;52.494;6.976;2023-02-05T06:56:25;28.97;;;11.70;;
22894;SDS011;11614;52.494;6.976;2023-02-05T06:58:51;17.70;;;6.77;;
22894;SDS011;11614;52.494;6.976;2023-02-05T07:01:17;18.13;;;8.13;;
22894;SDS011;11614;52.494;6.976;2023-02-05T07:03:43;17.47;;;9.03;;
22894;SDS011;11614;52.494;6.976;2023-02-05T07:06:11;8.77;;;4.10;;
22894;SDS011;11614;52.494;6.976;2023-02-05T07:08:37;10.07;;;4.37;;
22894;SDS011;11614;52.494;6.976;2023-02-05T07:11:03;7.40;;;2.97;;
22894;SDS011;11614;52.494;6.976;2023-02-05T07:13:29;6.10;;;2.30;;
22894;SDS011;11614;52.494;6.976;2023-02-05T07:15:55;5.43;;;1.40;;
22894;SDS011;11614;52.494;6.976;2023-02-05T07:18:21;6.77;;;1.33;;
22894;SDS011;11614;52.494;6.976;2023-02-05T07:20:48;4.77;;;1.17;;
22894;SDS011;11614;52.494;6.976;2023-02-05T07:23:14;5.53;;;0.93;;
22894;SDS011;11614;52.494;6.976;2023-02-05T07:25:40;3.40;;;0.97;;
22894;SDS011;11614;52.494;6.976;2023-02-05T07:28:07;3.13;;;0.40;;
22894;SDS011;11614;52.494;6.976;2023-02-05T07:30:33;1.37;;;0.27;;
22894;SDS011;11614;52.494;6.976;2023-02-05T07:32:59;5.60;;;0.63;;
22894;SDS011;11614;52.494;6.976;2023-02-05T07:35:27;4.33;;;0.77;;
22894;SDS011;11614;52.494;6.976;2023-02-05T07:37:53;7.43;;;0.50;;
22894;SDS011;11614;52.494;6.976;2023-02-05T07:40:19;2.23;;;0.43;;
22894;SDS011;11614;52.494;6.976;2023-02-05T07:42:45;4.43;;;0.70;;
22894;SDS011;11614;52.494;6.976;2023-02-05T07:45:11;7.43;;;0.93;;
22894;SDS011;11614;52.494;6.976;2023-02-05T07:47:37;1.87;;;0.23;;
22894;SDS011;11614;52.494;6.976;2023-02-05T07:50:04;5.50;;;0.50;;
22894;SDS011;11614;52.494;6.976;2023-02-05T07:52:30;2.80;;;0.27;;
22894;SDS011;11614;52.494;6.976;2023-02-05T07:54:56;8.07;;;0.87;;
22894;SDS011;11614;52.494;6.976;2023-02-05T07:57:22;3.97;;;0.37;;
22894;SDS011;11614;52.494;6.976;2023-02-05T07:59:48;3.93;;;0.40;;
22894;SDS011;11614;52.494;6.976;2023-02-05T08:02:14;2.37;;;0.40;;
22894;SDS011;11614;52.494;6.976;2023-02-05T08:04:40;3.70;;;0.43;;
22894;SDS011;11614;52.494;6.976;2023-02-05T08:07:06;4.70;;;0.67;;
22894;SDS011;11614;52.494;6.976;2023-02-05T08:09:32;4.50;;;0.67;;
22894;SDS011;11614;52.494;6.976;2023-02-05T08:11:58;8.27;;;0.90;;
22894;SDS011;11614;52.494;6.976;2023-02-05T08:14:24;2.87;;;0.20;;
22894;SDS011;11614;52.494;6.976;2023-02-05T08:16:50;2.33;;;0.30;;
22894;SDS011;11614;52.494;6.976;2023-02-05T08:19:16;4.70;;;0.40;;
22894;SDS011;11614;52.494;6.976;2023-02-05T08:21:42;3.27;;;0.60;;
22894;SDS011;11614;52.494;6.976;2023-02-05T08:24:09;0.93;;;0.27;;
22894;SDS011;11614;52.494;6.976;2023-02-05T08:26:35;1.97;;;0.73;;
22894;SDS011;11614;52.494;6.976;2023-02-05T08:29:01;1.80;;;0.23;;
22894;SDS011;11614;52.494;6.976;2023-02-05T08:31:27;5.30;;;0.43;;
22894;SDS011;11614;52.494;6.976;2023-02-05T08:33:53;5.90;;;0.83;;
22894;SDS011;11614;52.494;6.976;2023-02-05T08:36:20;2.60;;;0.57;;
22894;SDS011;11614;52.494;6.976;2023-02-05T08:38:46;4.77;;;0.93;;
22894;SDS011;11614;52.494;6.976;2023-02-05T08:41:12;2.63;;;0.47;;
22894;SDS011;11614;52.494;6.976;2023-02-05T08:43:46;2.53;;;0.57;;
22894;SDS011;11614;52.494;6.976;2023-02-05T08:46:13;3.30;;;0.37;;
22894;SDS011;11614;52.494;6.976;2023-02-05T08:48:40;4.23;;;0.43;;
22894;SDS011;11614;52.494;6.976;2023-02-05T08:51:11;2.73;;;0.53;;
22894;SDS011;11614;52.494;6.976;2023-02-05T08:53:37;1.47;;;0.20;;
22894;SDS011;11614;52.494;6.976;2023-02-05T08:56:04;6.40;;;0.90;;
22894;SDS011;11614;52.494;6.976;2023-02-05T08:58:30;3.13;;;0.63;;
22894;SDS011;11614;52.494;6.976;2023-02-05T09:01:00;2.40;;;0.60;;
22894;SDS011;11614;52.494;6.976;2023-02-05T09:03:26;1.50;;;0.40;;
22894;SDS011;11614;52.494;6.976;2023-02-05T09:05:52;1.33;;;0.30;;
22894;SDS011;11614;52.494;6.976;2023-02-05T09:08:18;3.43;;;0.80;;
22894;SDS011;11614;52.494;6.976;2023-02-05T09:10:44;4.33;;;0.87;;
22894;SDS011;11614;52.494;6.976;2023-02-05T09:13:10;3.27;;;0.73;;
22894;SDS011;11614;52.494;6.976;2023-02-05T09:15:42;2.13;;;0.30;;
22894;SDS011;11614;52.494;6.976;2023-02-05T09:18:09;3.20;;;0.33;;
22894;SDS011;11614;52.494;6.976;2023-02-05T09:20:39;5.07;;;0.73;;
22894;SDS011;11614;52.494;6.976;2023-02-05T09:23:05;5.17;;;0.50;;
22894;SDS011;11614;52.494;6.976;2023-02-05T09:25:31;3.37;;;1.03;;
22894;SDS011;11614;52.494;6.976;2023-02-05T09:27:58;5.87;;;0.53;;
22894;SDS011;11614;52.494;6.976;2023-02-05T09:30:24;3.73;;;0.63;;
22894;SDS011;11614;52.494;6.976;2023-02-05T09:32:50;6.27;;;0.50;;
22894;SDS011;11614;52.494;6.976;2023-02-05T09:35:16;4.77;;;0.80;;
22894;SDS011;11614;52.494;6.976;2023-02-05T09:37:42;10.00;;;2.47;;
22894;SDS011;11614;52.494;6.976;2023-02-05T09:40:10;2.17;;;0.47;;
22894;SDS011;11614;52.494;6.976;2023-02-05T09:42:43;3.90;;;0.43;;
22894;SDS011;11614;52.494;6.976;2023-02-05T09:45:53;3.63;;;1.17;;
22894;SDS011;11614;52.494;6.976;2023-02-05T09:48:05;7.77;;;1.33;;
22894;SDS011;11614;52.494;6.976;2023-02-05T09:50:32;5.93;;;0.73;;
22894;SDS011;11614;52.494;6.976;2023-02-05T09:53:00;4.90;;;0.67;;
22894;SDS011;11614;52.494;6.976;2023-02-05T09:55:28;6.73;;;1.23;;
22894;SDS011;11614;52.494;6.976;2023-02-05T09:57:59;4.67;;;0.40;;
22894;SDS011;11614;52.494;6.976;2023-02-05T10:05:52;4.40;;;1.47;;
22894;SDS011;11614;52.494;6.976;2023-02-05T10:08:34;4.47;;;1.00;;
22894;SDS011;11614;52.494;6.976;2023-02-05T10:11:03;5.53;;;0.83;;
22894;SDS011;11614;52.494;6.976;2023-02-05T10:13:34;3.70;;;0.70;;
22894;SDS011;11614;52.494;6.976;2023-02-05T10:24:05;5.77;;;1.70;;
22894;SDS011;11614;52.494;6.976;2023-02-05T10:26:43;3.87;;;1.00;;
22894;SDS011;11614;52.494;6.976;2023-02-05T10:29:14;6.60;;;1.87;;
22894;SDS011;11614;52.494;6.976;2023-02-05T10:36:49;2.77;;;0.40;;
22894;SDS011;11614;52.494;6.976;2023-02-05T10:39:17;11.70;;;2.30;;
22894;SDS011;11614;52.494;6.976;2023-02-05T10:41:46;4.53;;;1.07;;
22894;SDS011;11614;52.494;6.976;2023-02-05T10:44:29;7.77;;;1.37;;
22894;SDS011;11614;52.494;6.976;2023-02-05T10:47:02;6.00;;;0.87;;
22894;SDS011;11614;52.494;6.976;2023-02-05T10:51:55;5.93;;;1.10;;
22894;SDS011;11614;52.494;6.976;2023-02-05T10:56:50;7.60;;;0.70;;
22894;SDS011;11614;52.494;6.976;2023-02-05T10:59:20;2.63;;;0.63;;
22894;SDS011;11614;52.494;6.976;2023-02-05T11:01:47;6.50;;;1.33;;
22894;SDS011;11614;52.494;6.976;2023-02-05T11:04:14;5.63;;;1.27;;
22894;SDS011;11614;52.494;6.976;2023-02-05T11:06:42;4.77;;;1.03;;
22894;SDS011;11614;52.494;6.976;2023-02-05T11:12:05;4.27;;;1.03;;
22894;SDS011;11614;52.494;6.976;2023-02-05T11:14:39;7.03;;;1.70;;
22894;SDS011;11614;52.494;6.976;2023-02-05T11:19:39;7.17;;;2.20;;
22894;SDS011;11614;52.494;6.976;2023-02-05T11:22:05;5.27;;;1.30;;
22894;SDS011;11614;52.494;6.976;2023-02-05T11:24:35;1.93;;;0.60;;
22894;SDS011;11614;52.494;6.976;2023-02-05T11:29:35;7.47;;;1.70;;
22894;SDS011;11614;52.494;6.976;2023-02-05T11:32:01;7.43;;;1.43;;
22894;SDS011;11614;52.494;6.976;2023-02-05T11:34:27;9.63;;;2.77;;
22894;SDS011;11614;52.494;6.976;2023-02-05T11:36:54;8.57;;;1.60;;
22894;SDS011;11614;52.494;6.976;2023-02-05T11:41:58;9.53;;;1.73;;
22894;SDS011;11614;52.494;6.976;2023-02-05T11:44:33;11.03;;;2.20;;
22894;SDS011;11614;52.494;6.976;2023-02-05T11:47:00;8.23;;;1.07;;
22894;SDS011;11614;52.494;6.976;2023-02-05T11:49:31;9.00;;;2.23;;
22894;SDS011;11614;52.494;6.976;2023-02-05T11:51:58;9.90;;;2.40;;
22894;SDS011;11614;52.494;6.976;2023-02-05T11:54:29;14.73;;;2.13;;
22894;SDS011;11614;52.494;6.976;2023-02-05T11:59:40;5.87;;;1.17;;
22894;SDS011;11614;52.494;6.976;2023-02-05T12:05:38;10.83;;;1.67;;
22894;SDS011;11614;52.494;6.976;2023-02-05T12:07:44;7.27;;;1.33;;
22894;SDS011;11614;52.494;6.976;2023-02-05T12:10:35;8.87;;;1.33;;
22894;SDS011;11614;52.494;6.976;2023-02-05T12:15:28;11.80;;;1.47;;
22894;SDS011;11614;52.494;6.976;2023-02-05T12:20:37;6.83;;;1.90;;
22894;SDS011;11614;52.494;6.976;2023-02-05T12:28:18;17.37;;;2.17;;
22894;SDS011;11614;52.494;6.976;2023-02-05T12:30:58;17.77;;;3.20;;
22894;SDS011;11614;52.494;6.976;2023-02-05T12:33:36;11.03;;;1.70;;
22894;SDS011;11614;52.494;6.976;2023-02-05T12:41:24;12.93;;;2.40;;
22894;SDS011;11614;52.494;6.976;2023-02-05T12:43:54;9.70;;;1.70;;
22894;SDS011;11614;52.494;6.976;2023-02-05T12:56:30;13.07;;;3.00;;
22894;SDS011;11614;52.494;6.976;2023-02-05T12:58:59;8.43;;;1.20;;
22894;SDS011;11614;52.494;6.976;2023-02-05T13:04:38;16.53;;;4.33;;
22894;SDS011;11614;52.494;6.976;2023-02-05T13:07:12;16.60;;;3.90;;
22894;SDS011;11614;52.494;6.976;2023-02-05T13:10:00;13.87;;;2.37;;
22894;SDS011;11614;52.494;6.976;2023-02-05T13:12:30;17.23;;;2.73;;
22894;SDS011;11614;52.494;6.976;2023-02-05T13:15:03;6.90;;;1.00;;
22894;SDS011;11614;52.494;6.976;2023-02-05T13:17:43;22.20;;;4.53;;
22894;SDS011;11614;52.494;6.976;2023-02-05T13:20:30;17.77;;;3.60;;
22894;SDS011;11614;52.494;6.976;2023-02-05T13:23:26;17.83;;;3.63;;
22894;SDS011;11614;52.494;6.976;2023-02-05T13:26:12;11.27;;;2.37;;
22894;SDS011;11614;52.494;6.976;2023-02-05T13:29:04;20.13;;;4.53;;
22894;SDS011;11614;52.494;6.976;2023-02-05T13:31:39;13.77;;;3.00;;
22894;SDS011;11614;52.494;6.976;2023-02-05T13:34:08;16.27;;;4.43;;
22894;SDS011;11614;52.494;6.976;2023-02-05T13:55:19;14.53;;;2.83;;
22894;SDS011;11614;52.494;6.976;2023-02-05T13:58:04;10.23;;;2.40;;
22894;SDS011;11614;52.494;6.976;2023-02-05T14:00:32;17.00;;;2.10;;
22894;SDS011;11614;52.494;6.976;2023-02-05T14:02:59;28.93;;;5.63;;
22894;SDS011;11614;52.494;6.976;2023-02-05T14:05:33;16.13;;;3.00;;
22894;SDS011;11614;52.494;6.976;2023-02-05T14:08:01;12.33;;;2.87;;
22894;SDS011;11614;52.494;6.976;2023-02-05T14:13:16;8.87;;;2.70;;
22894;SDS011;11614;52.494;6.976;2023-02-05T14:15:49;13.50;;;2.73;;
22894;SDS011;11614;52.494;6.976;2023-02-05T14:23:55;18.57;;;4.37;;
22894;SDS011;11614;52.494;6.976;2023-02-05T14:29:36;12.10;;;3.27;;
22894;SDS011;11614;52.494;6.976;2023-02-05T14:32:09;16.73;;;3.97;;
22894;SDS011;11614;52.494;6.976;2023-02-05T14:35:03;21.83;;;5.73;;
22894;SDS011;11614;52.494;6.976;2023-02-05T14:37:48;16.77;;;2.60;;
22894;SDS011;11614;52.494;6.976;2023-02-05T14:43:20;19.07;;;3.90;;
22894;SDS011;11614;52.494;6.976;2023-02-05T14:45:52;18.27;;;4.93;;
22894;SDS011;11614;52.494;6.976;2023-02-05T14:48:28;16.97;;;6.40;;
22894;SDS011;11614;52.494;6.976;2023-02-05T14:53:53;17.47;;;4.00;;
22894;SDS011;11614;52.494;6.976;2023-02-05T14:56:38;18.80;;;5.43;;
22894;SDS011;11614;52.494;6.976;2023-02-05T14:59:42;15.97;;;4.30;;
22894;SDS011;11614;52.494;6.976;2023-02-05T15:05:16;25.33;;;4.40;;
22894;SDS011;11614;52.494;6.976;2023-02-05T15:07:52;16.80;;;4.03;;
22894;SDS011;11614;52.494;6.976;2023-02-05T15:10:35;9.27;;;2.50;;
22894;SDS011;11614;52.494;6.976;2023-02-05T15:13:13;18.47;;;4.40;;
22894;SDS011;11614;52.494;6.976;2023-02-05T15:15:40;13.83;;;2.83;;
22894;SDS011;11614;52.494;6.976;2023-02-05T15:20:46;19.17;;;3.57;;
22894;SDS011;11614;52.494;6.976;2023-02-05T15:23:17;24.63;;;6.53;;
22894;SDS011;11614;52.494;6.976;2023-02-05T15:25:53;15.30;;;2.80;;
22894;SDS011;11614;52.494;6.976;2023-02-05T15:28:24;13.00;;;1.93;;
22894;SDS011;11614;52.494;6.976;2023-02-05T15:30:54;11.13;;;2.50;;
22894;SDS011;11614;52.494;6.976;2023-02-05T15:34:05;15.37;;;2.53;;
22894;SDS011;11614;52.494;6.976;2023-02-05T15:36:17;17.03;;;2.80;;
22894;SDS011;11614;52.494;6.976;2023-02-05T15:38:46;15.40;;;3.40;;
22894;SDS011;11614;52.494;6.976;2023-02-05T15:41:14;22.97;;;5.10;;
22894;SDS011;11614;52.494;6.976;2023-02-05T15:43:40;21.90;;;3.70;;
22894;SDS011;11614;52.494;6.976;2023-02-05T15:46:21;22.77;;;5.13;;
22894;SDS011;11614;52.494;6.976;2023-02-05T15:48:47;23.00;;;3.83;;
22894;SDS011;11614;52.494;6.976;2023-02-05T15:53:47;17.30;;;4.60;;
22894;SDS011;11614;52.494;6.976;2023-02-05T15:56:16;17.33;;;4.23;;
22894;SDS011;11614;52.494;6.976;2023-02-05T16:01:24;18.17;;;3.37;;
22894;SDS011;11614;52.494;6.976;2023-02-05T16:03:52;12.53;;;2.53;;
22894;SDS011;11614;52.494;6.976;2023-02-05T16:06:19;15.00;;;3.40;;
22894;SDS011;11614;52.494;6.976;2023-02-05T16:08:46;14.93;;;2.93;;
22894;SDS011;11614;52.494;6.976;2023-02-05T16:11:23;13.23;;;2.87;;
22894;SDS011;11614;52.494;6.976;2023-02-05T16:14:00;18.13;;;3.50;;
22894;SDS011;11614;52.494;6.976;2023-02-05T16:16:26;15.90;;;2.87;;
22894;SDS011;11614;52.494;6.976;2023-02-05T16:18:54;16.07;;;2.67;;
22894;SDS011;11614;52.494;6.976;2023-02-05T16:24:31;17.27;;;3.57;;
22894;SDS011;11614;52.494;6.976;2023-02-05T16:27:05;28.97;;;5.90;;
22894;SDS011;11614;52.494;6.976;2023-02-05T16:29:38;20.57;;;4.73;;
22894;SDS011;11614;52.494;6.976;2023-02-05T16:32:19;21.13;;;4.27;;
22894;SDS011;11614;52.494;6.976;2023-02-05T16:34:46;23.93;;;3.97;;
22894;SDS011;11614;52.494;6.976;2023-02-05T16:37:13;16.33;;;2.80;;
22894;SDS011;11614;52.494;6.976;2023-02-05T16:39:50;15.83;;;3.17;;
22894;SDS011;11614;52.494;6.976;2023-02-05T16:42:33;19.87;;;5.20;;
22894;SDS011;11614;52.494;6.976;2023-02-05T16:47:37;14.70;;;3.07;;
22894;SDS011;11614;52.494;6.976;2023-02-05T16:52:55;17.53;;;4.27;;
22894;SDS011;11614;52.494;6.976;2023-02-05T16:57:50;26.43;;;4.70;;
22894;SDS011;11614;52.494;6.976;2023-02-05T17:00:21;22.23;;;5.10;;
22894;SDS011;11614;52.494;6.976;2023-02-05T17:02:47;17.57;;;4.73;;
22894;SDS011;11614;52.494;6.976;2023-02-05T17:05:23;14.97;;;3.27;;
22894;SDS011;11614;52.494;6.976;2023-02-05T17:07:54;26.07;;;7.40;;
22894;SDS011;11614;52.494;6.976;2023-02-05T17:10:20;16.83;;;3.40;;
22894;SDS011;11614;52.494;6.976;2023-02-05T17:12:49;14.93;;;3.53;;
22894;SDS011;11614;52.494;6.976;2023-02-05T17:17:55;19.43;;;3.90;;
22894;SDS011;11614;52.494;6.976;2023-02-05T17:20:26;16.90;;;3.17;;
22894;SDS011;11614;52.494;6.976;2023-02-05T17:25:27;32.27;;;5.30;;